PWSweather.com
Personal Weather Stations
Station Observations
KCOGRAND2
Redlands, Southcamp Road & Dakota Circle, Grand Junction, CO 81507

Redlands, Southcamp Road & Dakota CircleGrand Junction, CO 81507

Lat: 39.055, Lon: -108.637

Elevation: 4870

Station Type: RadioShack WX200

High Low Average
Temperature 70.0°F21.1°F 45.0°F7.2°F 57.2°F14.0°F
Dew Point 41.2°F5.1°F 11.5°F-11.4°F 29.6°F-1.3°F
Winds 7.0 mph SSE11.3 mph SSE Calm Calm 2.5 mph 4.0 mph
Wind Gusts 11.6 mph18.7 mph -- 5.2 mph8.4 mph
Humidity 78% 12% 43%
Pressure 25.45 in861.80 in 25.34 in858.10 in -
Precipitation 0.00 in0.00 in - -
Hour Temp Dew Point Humidity Winds Wind Gusts Pressure Precip Precip Rate Daily Precip Total
12:02 AM 49.6°F9.8°C 38.8°F3.8°C 66% Calm Calm 2.7 mph4.3 kmh 25.34 in858.1 mb 0.00 in0.0 mm 0.00 in0.0 mm 0.00 in0.0 mm
12:07 AM 49.8°F9.9°C 38.8°F3.8°C 66% Calm Calm 3.6 mph5.8 kmh 25.34 in858.1 mb 0.00 in0.0 mm 0.00 in0.0 mm 0.00 in0.0 mm
12:12 AM 49.8°F9.9°C 38.8°F3.8°C 66% Calm Calm -- 25.34 in858.1 mb 0.00 in0.0 mm 0.00 in0.0 mm 0.00 in0.0 mm
12:17 AM 50.0°F10.0°C 38.7°F3.7°C 65% Calm Calm -- 25.34 in858.1 mb 0.00 in0.0 mm 0.00 in0.0 mm 0.00 in0.0 mm
12:22 AM 49.6°F9.8°C 38.3°F3.5°C 65% Calm Calm 2.7 mph4.3 kmh 25.34 in858.1 mb 0.00 in0.0 mm 0.00 in0.0 mm 0.00 in0.0 mm
12:27 AM 49.5°F9.7°C 38.1°F3.4°C 65% Calm Calm 5.4 mph8.7 kmh 25.34 in858.1 mb 0.00 in0.0 mm 0.00 in0.0 mm 0.00 in0.0 mm
12:32 AM 49.3°F9.6°C 37.9°F3.3°C 65% Calm Calm 3.6 mph5.8 kmh 25.34 in858.1 mb 0.00 in0.0 mm 0.00 in0.0 mm 0.00 in0.0 mm
12:37 AM 49.6°F9.8°C 38.3°F3.5°C 65% Calm Calm -- 25.34 in858.1 mb 0.00 in0.0 mm 0.00 in0.0 mm 0.00 in0.0 mm
12:42 AM 49.6°F9.8°C 37.9°F3.3°C 64% Calm Calm 2.7 mph4.3 kmh 25.34 in858.1 mb 0.00 in0.0 mm 0.00 in0.0 mm 0.00 in0.0 mm
12:47 AM 49.8°F9.9°C 37.8°F3.2°C 63% Calm Calm 2.7 mph4.3 kmh 25.37 in859.1 mb 0.00 in0.0 mm 0.00 in0.0 mm 0.00 in0.0 mm
12:52 AM 49.6°F9.8°C 37.6°F3.1°C 63% Calm Calm -- 25.37 in859.1 mb 0.00 in0.0 mm 0.00 in0.0 mm 0.00 in0.0 mm
12:57 AM 49.5°F9.7°C 37.4°F3.0°C 63% Calm Calm 3.6 mph5.8 kmh 25.37 in859.1 mb 0.00 in0.0 mm 0.00 in0.0 mm 0.00 in0.0 mm
01:02 AM 49.1°F9.5°C 37.0°F2.8°C 63% 1.0 mph SE1.6 kmh SE 5.8 mph9.3 kmh 25.37 in859.1 mb 0.00 in0.0 mm 0.00 in0.0 mm 0.00 in0.0 mm
01:07 AM 48.7°F9.3°C 37.0°F2.8°C 64% 2.0 mph SE3.2 kmh SE 6.3 mph10.1 kmh 25.37 in859.1 mb 0.00 in0.0 mm 0.00 in0.0 mm 0.00 in0.0 mm
01:13 AM 48.6°F9.2°C 36.9°F2.7°C 64% 2.0 mph SE3.2 kmh SE 3.6 mph5.8 kmh 25.37 in859.1 mb 0.00 in0.0 mm 0.00 in0.0 mm 0.00 in0.0 mm
01:18 AM 48.9°F9.4°C 37.8°F3.2°C 65% Calm Calm -- 25.37 in859.1 mb 0.00 in0.0 mm 0.00 in0.0 mm 0.00 in0.0 mm
01:23 AM 49.1°F9.5°C 37.0°F2.8°C 63% Calm Calm 3.1 mph5.0 kmh 25.37 in859.1 mb 0.00 in0.0 mm 0.00 in0.0 mm 0.00 in0.0 mm
01:28 AM 49.1°F9.5°C 36.7°F2.6°C 62% Calm Calm 3.1 mph5.0 kmh 25.37 in859.1 mb 0.00 in0.0 mm 0.00 in0.0 mm 0.00 in0.0 mm
01:33 AM 49.1°F9.5°C 36.3°F2.4°C 61% Calm Calm -- 25.37 in859.1 mb 0.00 in0.0 mm 0.00 in0.0 mm 0.00 in0.0 mm
01:38 AM 49.1°F9.5°C 36.3°F2.4°C 61% Calm Calm 3.1 mph5.0 kmh 25.37 in859.1 mb 0.00 in0.0 mm 0.00 in0.0 mm 0.00 in0.0 mm
01:43 AM 49.1°F9.5°C 35.8°F2.1°C 60% Calm Calm 3.1 mph5.0 kmh 25.37 in859.1 mb 0.00 in0.0 mm 0.00 in0.0 mm 0.00 in0.0 mm
01:48 AM 48.9°F9.4°C 35.6°F2.0°C 60% Calm Calm 2.7 mph4.3 kmh 25.37 in859.1 mb 0.00 in0.0 mm 0.00 in0.0 mm 0.00 in0.0 mm
01:53 AM 48.7°F9.3°C 35.1°F1.7°C 59% Calm Calm -- 25.37 in859.1 mb 0.00 in0.0 mm 0.00 in0.0 mm 0.00 in0.0 mm
01:58 AM 48.4°F9.1°C 35.1°F1.7°C 60% Calm Calm 3.1 mph5.0 kmh 25.37 in859.1 mb 0.00 in0.0 mm 0.00 in0.0 mm 0.00 in0.0 mm
02:03 AM 48.2°F9.0°C 35.1°F1.7°C 60% Calm Calm 2.7 mph4.3 kmh 25.37 in859.1 mb 0.00 in0.0 mm 0.00 in0.0 mm 0.00 in0.0 mm
02:08 AM 47.8°F8.8°C 35.1°F1.7°C 61% Calm Calm -- 25.37 in859.1 mb 0.00 in0.0 mm 0.00 in0.0 mm 0.00 in0.0 mm
02:13 AM 47.5°F8.6°C 35.1°F1.7°C 62% Calm Calm 2.7 mph4.3 kmh 25.37 in859.1 mb 0.00 in0.0 mm 0.00 in0.0 mm 0.00 in0.0 mm
02:18 AM 48.0°F8.9°C 36.0°F2.2°C 63% Calm Calm -- 25.37 in859.1 mb 0.00 in0.0 mm 0.00 in0.0 mm 0.00 in0.0 mm
02:23 AM 47.8°F8.8°C 35.8°F2.1°C 63% Calm Calm 3.1 mph5.0 kmh 25.37 in859.1 mb 0.00 in0.0 mm 0.00 in0.0 mm 0.00 in0.0 mm
02:28 AM 47.5°F8.6°C 35.6°F2.0°C 63% 2.0 mph SE3.2 kmh SE 3.6 mph5.8 kmh 25.37 in859.1 mb 0.00 in0.0 mm 0.00 in0.0 mm 0.00 in0.0 mm
02:33 AM 47.3°F8.5°C 35.8°F2.1°C 64% 2.0 mph SE3.2 kmh SE 3.6 mph5.8 kmh 25.37 in859.1 mb 0.00 in0.0 mm 0.00 in0.0 mm 0.00 in0.0 mm
02:38 AM 47.1°F8.4°C 35.6°F2.0°C 64% 1.0 mph SE1.6 kmh SE 3.1 mph5.0 kmh 25.37 in859.1 mb 0.00 in0.0 mm 0.00 in0.0 mm 0.00 in0.0 mm
02:43 AM 47.3°F8.5°C 35.8°F2.1°C 64% Calm Calm 2.7 mph4.3 kmh 25.37 in859.1 mb 0.00 in0.0 mm 0.00 in0.0 mm 0.00 in0.0 mm
02:48 AM 46.9°F8.3°C 35.4°F1.9°C 64% Calm Calm 3.1 mph5.0 kmh 25.37 in859.1 mb 0.00 in0.0 mm 0.00 in0.0 mm 0.00 in0.0 mm
02:53 AM 46.6°F8.1°C 35.1°F1.7°C 64% Calm Calm 3.1 mph5.0 kmh 25.37 in859.1 mb 0.00 in0.0 mm 0.00 in0.0 mm 0.00 in0.0 mm
02:58 AM 46.6°F8.1°C 35.4°F1.9°C 65% Calm Calm -- 25.37 in859.1 mb 0.00 in0.0 mm 0.00 in0.0 mm 0.00 in0.0 mm
03:03 AM 46.4°F8.0°C 35.2°F1.8°C 65% Calm Calm 3.1 mph5.0 kmh 25.37 in859.1 mb 0.00 in0.0 mm 0.00 in0.0 mm 0.00 in0.0 mm
03:08 AM 46.6°F8.1°C 35.4°F1.9°C 65% 1.0 mph SE1.6 kmh SE 3.6 mph5.8 kmh 25.37 in859.1 mb 0.00 in0.0 mm 0.00 in0.0 mm 0.00 in0.0 mm
03:13 AM 46.8°F8.2°C 36.7°F2.6°C 68% 3.0 mph SE4.8 kmh SE 4.9 mph7.9 kmh 25.37 in859.1 mb 0.00 in0.0 mm 0.00 in0.0 mm 0.00 in0.0 mm
03:18 AM 46.2°F7.9°C 37.4°F3.0°C 71% 3.0 mph S4.8 kmh S 4.0 mph6.4 kmh 25.37 in859.1 mb 0.00 in0.0 mm 0.00 in0.0 mm 0.00 in0.0 mm
03:23 AM 45.9°F7.7°C 38.1°F3.4°C 74% 3.0 mph S4.8 kmh S 4.9 mph7.9 kmh 25.37 in859.1 mb 0.00 in0.0 mm 0.00 in0.0 mm 0.00 in0.0 mm
03:28 AM 45.9°F7.7°C 38.7°F3.7°C 76% 3.0 mph S4.8 kmh S 5.4 mph8.7 kmh 25.37 in859.1 mb 0.00 in0.0 mm 0.00 in0.0 mm 0.00 in0.0 mm
03:33 AM 45.5°F7.5°C 38.7°F3.7°C 77% 3.0 mph S4.8 kmh S 4.9 mph7.9 kmh 25.37 in859.1 mb 0.00 in0.0 mm 0.00 in0.0 mm 0.00 in0.0 mm
03:38 AM 45.5°F7.5°C 39.0°F3.9°C 78% 3.0 mph S4.8 kmh S 4.5 mph7.2 kmh 25.37 in859.1 mb 0.00 in0.0 mm 0.00 in0.0 mm 0.00 in0.0 mm
03:43 AM 45.5°F7.5°C 39.0°F3.9°C 78% 3.0 mph S4.8 kmh S 4.5 mph7.2 kmh 25.37 in859.1 mb 0.00 in0.0 mm 0.00 in0.0 mm 0.00 in0.0 mm
03:48 AM 45.5°F7.5°C 38.7°F3.7°C 77% 3.0 mph S4.8 kmh S 5.4 mph8.7 kmh 25.37 in859.1 mb 0.00 in0.0 mm 0.00 in0.0 mm 0.00 in0.0 mm
03:53 AM 45.9°F7.7°C 38.5°F3.6°C 75% 2.0 mph SSE3.2 kmh SSE 3.6 mph5.8 kmh 25.37 in859.1 mb 0.00 in0.0 mm 0.00 in0.0 mm 0.00 in0.0 mm
03:58 AM 45.9°F7.7°C 38.1°F3.4°C 74% 1.0 mph SE1.6 kmh SE 3.6 mph5.8 kmh 25.37 in859.1 mb 0.00 in0.0 mm 0.00 in0.0 mm 0.00 in0.0 mm
04:03 AM 46.2°F7.9°C 37.8°F3.2°C 72% 1.0 mph SE1.6 kmh SE 3.1 mph5.0 kmh 25.37 in859.1 mb 0.00 in0.0 mm 0.00 in0.0 mm 0.00 in0.0 mm
04:08 AM 46.0°F7.8°C 36.9°F2.7°C 70% Calm Calm 2.7 mph4.3 kmh 25.37 in859.1 mb 0.00 in0.0 mm 0.00 in0.0 mm 0.00 in0.0 mm
04:13 AM 46.2°F7.9°C 36.3°F2.4°C 68% Calm Calm 2.7 mph4.3 kmh 25.37 in859.1 mb 0.00 in0.0 mm 0.00 in0.0 mm 0.00 in0.0 mm
04:18 AM 46.6°F8.1°C 35.8°F2.1°C 66% Calm Calm 2.7 mph4.3 kmh 25.37 in859.1 mb 0.00 in0.0 mm 0.00 in0.0 mm 0.00 in0.0 mm
04:23 AM 46.8°F8.2°C 35.6°F2.0°C 65% Calm Calm 3.1 mph5.0 kmh 25.37 in859.1 mb 0.00 in0.0 mm 0.00 in0.0 mm 0.00 in0.0 mm
04:28 AM 46.9°F8.3°C 35.4°F1.9°C 64% Calm Calm 4.0 mph6.4 kmh 25.37 in859.1 mb 0.00 in0.0 mm 0.00 in0.0 mm 0.00 in0.0 mm
04:33 AM 46.2°F7.9°C 34.0°F1.1°C 62% 2.0 mph SE3.2 kmh SE 4.9 mph7.9 kmh 25.37 in859.1 mb 0.00 in0.0 mm 0.00 in0.0 mm 0.00 in0.0 mm
04:38 AM 45.5°F7.5°C 36.0°F2.2°C 69% 4.0 mph SSE6.4 kmh SSE 5.4 mph8.7 kmh 25.37 in859.1 mb 0.00 in0.0 mm 0.00 in0.0 mm 0.00 in0.0 mm
04:43 AM 45.0°F7.2°C 35.8°F2.1°C 70% 3.0 mph SSE4.8 kmh SSE 4.0 mph6.4 kmh 25.37 in859.1 mb 0.00 in0.0 mm 0.00 in0.0 mm 0.00 in0.0 mm
04:48 AM 45.1°F7.3°C 36.7°F2.6°C 72% 2.0 mph SSE3.2 kmh SSE 3.6 mph5.8 kmh 25.39 in859.8 mb 0.00 in0.0 mm 0.00 in0.0 mm 0.00 in0.0 mm
04:53 AM 45.3°F7.4°C 36.9°F2.7°C 72% 1.0 mph SSE1.6 kmh SSE 3.6 mph5.8 kmh 25.39 in859.8 mb 0.00 in0.0 mm 0.00 in0.0 mm 0.00 in0.0 mm
04:58 AM 45.5°F7.5°C 36.7°F2.6°C 71% Calm Calm 3.6 mph5.8 kmh 25.39 in859.8 mb 0.00 in0.0 mm 0.00 in0.0 mm 0.00 in0.0 mm
05:03 AM 45.9°F7.7°C 37.0°F2.8°C 71% Calm Calm -- 25.37 in859.1 mb 0.00 in0.0 mm 0.00 in0.0 mm 0.00 in0.0 mm
05:08 AM 45.9°F7.7°C 36.7°F2.6°C 70% Calm Calm 3.1 mph5.0 kmh 25.37 in859.1 mb 0.00 in0.0 mm 0.00 in0.0 mm 0.00 in0.0 mm
05:13 AM 46.2°F7.9°C 37.0°F2.8°C 70% Calm Calm -- 25.37 in859.1 mb 0.00 in0.0 mm 0.00 in0.0 mm 0.00 in0.0 mm
05:18 AM 46.6°F8.1°C 36.7°F2.6°C 68% Calm Calm 2.7 mph4.3 kmh 25.37 in859.1 mb 0.00 in0.0 mm 0.00 in0.0 mm 0.00 in0.0 mm
05:23 AM 46.6°F8.1°C 36.1°F2.3°C 67% Calm Calm 2.7 mph4.3 kmh 25.37 in859.1 mb 0.00 in0.0 mm 0.00 in0.0 mm 0.00 in0.0 mm
05:28 AM 46.4°F8.0°C 35.2°F1.8°C 65% Calm Calm 3.6 mph5.8 kmh 25.37 in859.1 mb 0.00 in0.0 mm 0.00 in0.0 mm 0.00 in0.0 mm
05:33 AM 46.2°F7.9°C 34.0°F1.1°C 62% Calm Calm 2.7 mph4.3 kmh 25.39 in859.8 mb 0.00 in0.0 mm 0.00 in0.0 mm 0.00 in0.0 mm
05:38 AM 46.2°F7.9°C 33.1°F0.6°C 60% Calm Calm 3.6 mph5.8 kmh 25.39 in859.8 mb 0.00 in0.0 mm 0.00 in0.0 mm 0.00 in0.0 mm
05:43 AM 46.0°F7.8°C 32.5°F0.3°C 59% Calm Calm 3.1 mph5.0 kmh 25.39 in859.8 mb 0.00 in0.0 mm 0.00 in0.0 mm 0.00 in0.0 mm
05:48 AM 46.0°F7.8°C 32.5°F0.3°C 59% 1.0 mph SSE1.6 kmh SSE 4.9 mph7.9 kmh 25.39 in859.8 mb 0.00 in0.0 mm 0.00 in0.0 mm 0.00 in0.0 mm
05:53 AM 46.6°F8.1°C 33.4°F0.8°C 60% Calm Calm -- 25.39 in859.8 mb 0.00 in0.0 mm 0.00 in0.0 mm 0.00 in0.0 mm
05:58 AM 46.8°F8.2°C 32.7°F0.4°C 58% Calm Calm 4.0 mph6.4 kmh 25.39 in859.8 mb 0.00 in0.0 mm 0.00 in0.0 mm 0.00 in0.0 mm
06:03 AM 46.9°F8.3°C 32.0°F0.0°C 56% Calm Calm 2.7 mph4.3 kmh 25.39 in859.8 mb 0.00 in0.0 mm 0.00 in0.0 mm 0.00 in0.0 mm
06:08 AM 46.9°F8.3°C 32.0°F0.0°C 56% Calm Calm 2.7 mph4.3 kmh 25.39 in859.8 mb 0.00 in0.0 mm 0.00 in0.0 mm 0.00 in0.0 mm
06:13 AM 46.8°F8.2°C 31.5°F-0.3°C 55% Calm Calm 3.6 mph5.8 kmh 25.39 in859.8 mb 0.00 in0.0 mm 0.00 in0.0 mm 0.00 in0.0 mm
06:18 AM 46.9°F8.3°C 31.6°F-0.2°C 55% Calm Calm 2.7 mph4.3 kmh 25.39 in859.8 mb 0.00 in0.0 mm 0.00 in0.0 mm 0.00 in0.0 mm
06:23 AM 47.3°F8.5°C 31.5°F-0.3°C 54% Calm Calm 4.0 mph6.4 kmh 25.39 in859.8 mb 0.00 in0.0 mm 0.00 in0.0 mm 0.00 in0.0 mm
06:28 AM 47.5°F8.6°C 30.7°F-0.7°C 52% 1.0 mph SE1.6 kmh SE 4.5 mph7.2 kmh 25.39 in859.8 mb 0.00 in0.0 mm 0.00 in0.0 mm 0.00 in0.0 mm
06:33 AM 47.7°F8.7°C 30.4°F-0.9°C 51% 1.0 mph SE1.6 kmh SE 4.0 mph6.4 kmh 25.39 in859.8 mb 0.00 in0.0 mm 0.00 in0.0 mm 0.00 in0.0 mm
06:38 AM 47.7°F8.7°C 30.0°F-1.1°C 50% Calm Calm 2.7 mph4.3 kmh 25.39 in859.8 mb 0.00 in0.0 mm 0.00 in0.0 mm 0.00 in0.0 mm
06:43 AM 47.5°F8.6°C 29.8°F-1.2°C 50% Calm Calm -- 25.39 in859.8 mb 0.00 in0.0 mm 0.00 in0.0 mm 0.00 in0.0 mm
06:48 AM 46.9°F8.3°C 29.8°F-1.2°C 51% Calm Calm 2.7 mph4.3 kmh 25.39 in859.8 mb 0.00 in0.0 mm 0.00 in0.0 mm 0.00 in0.0 mm
06:53 AM 46.9°F8.3°C 29.8°F-1.2°C 51% Calm Calm 2.7 mph4.3 kmh 25.39 in859.8 mb 0.00 in0.0 mm 0.00 in0.0 mm 0.00 in0.0 mm
06:58 AM 46.9°F8.3°C 29.8°F-1.2°C 51% Calm Calm 2.7 mph4.3 kmh 25.39 in859.8 mb 0.00 in0.0 mm 0.00 in0.0 mm 0.00 in0.0 mm
07:03 AM 47.1°F8.4°C 30.0°F-1.1°C 51% Calm Calm -- 25.39 in859.8 mb 0.00 in0.0 mm 0.00 in0.0 mm 0.00 in0.0 mm
07:08 AM 47.5°F8.6°C 30.2°F-1.0°C 51% Calm Calm 2.7 mph4.3 kmh 25.39 in859.8 mb 0.00 in0.0 mm 0.00 in0.0 mm 0.00 in0.0 mm
07:13 AM 48.2°F9.0°C 30.4°F-0.9°C 50% Calm Calm 3.1 mph5.0 kmh 25.39 in859.8 mb 0.00 in0.0 mm 0.00 in0.0 mm 0.00 in0.0 mm
07:18 AM 47.8°F8.8°C 29.7°F-1.3°C 49% Calm Calm 3.1 mph5.0 kmh 25.39 in859.8 mb 0.00 in0.0 mm 0.00 in0.0 mm 0.00 in0.0 mm
07:23 AM 47.7°F8.7°C 28.9°F-1.7°C 48% Calm Calm 2.7 mph4.3 kmh 25.39 in859.8 mb 0.00 in0.0 mm 0.00 in0.0 mm 0.00 in0.0 mm
07:28 AM 47.3°F8.5°C 29.1°F-1.6°C 49% Calm Calm -- 25.39 in859.8 mb 0.00 in0.0 mm 0.00 in0.0 mm 0.00 in0.0 mm
07:33 AM 46.9°F8.3°C 29.3°F-1.5°C 50% Calm Calm 2.7 mph4.3 kmh 25.39 in859.8 mb 0.00 in0.0 mm 0.00 in0.0 mm 0.00 in0.0 mm
07:38 AM 47.1°F8.4°C 29.5°F-1.4°C 50% Calm Calm -- 25.39 in859.8 mb 0.00 in0.0 mm 0.00 in0.0 mm 0.00 in0.0 mm
07:43 AM 47.7°F8.7°C 30.0°F-1.1°C 50% Calm Calm -- 25.39 in859.8 mb 0.00 in0.0 mm 0.00 in0.0 mm 0.00 in0.0 mm
07:48 AM 48.4°F9.1°C 30.6°F-0.8°C 50% Calm Calm -- 25.39 in859.8 mb 0.00 in0.0 mm 0.00 in0.0 mm 0.00 in0.0 mm
07:53 AM 50.2°F10.1°C 31.8°F-0.1°C 49% Calm Calm 2.7 mph4.3 kmh 25.39 in859.8 mb 0.00 in0.0 mm 0.00 in0.0 mm 0.00 in0.0 mm
07:58 AM 51.6°F10.9°C 31.5°F-0.3°C 46% Calm Calm -- 25.39 in859.8 mb 0.00 in0.0 mm 0.00 in0.0 mm 0.00 in0.0 mm
08:03 AM 52.3°F11.3°C 31.6°F-0.2°C 45% Calm Calm -- 25.39 in859.8 mb 0.00 in0.0 mm 0.00 in0.0 mm 0.00 in0.0 mm
08:08 AM 51.4°F10.8°C 30.7°F-0.7°C 45% 2.0 mph N3.2 kmh N 5.4 mph8.7 kmh 25.39 in859.8 mb 0.00 in0.0 mm 0.00 in0.0 mm 0.00 in0.0 mm
08:13 AM 52.3°F11.3°C 32.2°F0.1°C 46% 3.0 mph N4.8 kmh N 4.0 mph6.4 kmh 25.39 in859.8 mb 0.00 in0.0 mm 0.00 in0.0 mm 0.00 in0.0 mm
08:18 AM 53.8°F12.1°C 34.0°F1.1°C 47% Calm Calm -- 25.39 in859.8 mb 0.00 in0.0 mm 0.00 in0.0 mm 0.00 in0.0 mm
08:23 AM 53.2°F11.8°C 31.3°F-0.4°C 43% Calm Calm 4.0 mph6.4 kmh 25.39 in859.8 mb 0.00 in0.0 mm 0.00 in0.0 mm 0.00 in0.0 mm
08:28 AM 52.9°F11.6°C 31.6°F-0.2°C 44% 2.0 mph N3.2 kmh N 4.9 mph7.9 kmh 25.39 in859.8 mb 0.00 in0.0 mm 0.00 in0.0 mm 0.00 in0.0 mm
08:33 AM 53.4°F11.9°C 32.5°F0.3°C 45% 4.0 mph N6.4 kmh N 4.9 mph7.9 kmh 25.39 in859.8 mb 0.00 in0.0 mm 0.00 in0.0 mm 0.00 in0.0 mm
08:38 AM 53.4°F11.9°C 32.5°F0.3°C 45% 4.0 mph N6.4 kmh N 5.8 mph9.3 kmh 25.39 in859.8 mb 0.00 in0.0 mm 0.00 in0.0 mm 0.00 in0.0 mm
08:43 AM 54.0°F12.2°C 32.0°F0.0°C 43% 4.0 mph N6.4 kmh N 5.8 mph9.3 kmh 25.39 in859.8 mb 0.00 in0.0 mm 0.00 in0.0 mm 0.00 in0.0 mm
08:48 AM 53.1°F11.7°C 32.4°F0.2°C 45% 4.0 mph NNW6.4 kmh NNW 6.7 mph10.8 kmh 25.42 in860.8 mb 0.00 in0.0 mm 0.00 in0.0 mm 0.00 in0.0 mm
08:53 AM 52.3°F11.3°C 34.7°F1.5°C 51% 5.0 mph NW8.0 kmh NW 8.7 mph14.0 kmh 25.42 in860.8 mb 0.00 in0.0 mm 0.00 in0.0 mm 0.00 in0.0 mm
08:58 AM 52.5°F11.4°C 34.9°F1.6°C 51% 5.0 mph NW8.0 kmh NW 8.3 mph13.4 kmh 25.42 in860.8 mb 0.00 in0.0 mm 0.00 in0.0 mm 0.00 in0.0 mm
09:03 AM 52.9°F11.6°C 33.3°F0.7°C 47% 6.0 mph NW9.7 kmh NW 8.3 mph13.4 kmh 25.42 in860.8 mb 0.00 in0.0 mm 0.00 in0.0 mm 0.00 in0.0 mm
09:08 AM 53.2°F11.8°C 33.1°F0.6°C 46% 6.0 mph NW9.7 kmh NW 8.3 mph13.4 kmh 25.42 in860.8 mb 0.00 in0.0 mm 0.00 in0.0 mm 0.00 in0.0 mm
09:13 AM 54.5°F12.5°C 33.6°F0.9°C 45% 4.0 mph NW6.4 kmh NW 5.8 mph9.3 kmh 25.42 in860.8 mb 0.00 in0.0 mm 0.00 in0.0 mm 0.00 in0.0 mm
09:18 AM 52.5°F11.4°C 38.7°F3.7°C 59% 4.0 mph WSW6.4 kmh WSW 9.2 mph14.8 kmh 25.42 in860.8 mb 0.00 in0.0 mm 0.00 in0.0 mm 0.00 in0.0 mm
09:23 AM 52.0°F11.1°C 40.1°F4.5°C 64% 7.0 mph SSE11.3 kmh SSE 10.5 mph16.9 kmh 25.42 in860.8 mb 0.00 in0.0 mm 0.00 in0.0 mm 0.00 in0.0 mm
09:28 AM 52.5°F11.4°C 41.2°F5.1°C 65% 6.0 mph S9.7 kmh S 8.3 mph13.4 kmh 25.42 in860.8 mb 0.00 in0.0 mm 0.00 in0.0 mm 0.00 in0.0 mm
09:33 AM 52.5°F11.4°C 41.2°F5.1°C 65% 6.0 mph S9.7 kmh S 7.4 mph11.9 kmh 25.42 in860.8 mb 0.00 in0.0 mm 0.00 in0.0 mm 0.00 in0.0 mm
09:38 AM 52.9°F11.6°C 40.6°F4.8°C 63% 5.0 mph S8.0 kmh S 6.3 mph10.1 kmh 25.42 in860.8 mb 0.00 in0.0 mm 0.00 in0.0 mm 0.00 in0.0 mm
09:44 AM 53.4°F11.9°C 40.3°F4.6°C 61% 3.0 mph S4.8 kmh S 4.5 mph7.2 kmh 25.42 in860.8 mb 0.00 in0.0 mm 0.00 in0.0 mm 0.00 in0.0 mm
09:49 AM 54.5°F12.5°C 39.2°F4.0°C 56% 3.0 mph S4.8 kmh S 4.9 mph7.9 kmh 25.42 in860.8 mb 0.00 in0.0 mm 0.00 in0.0 mm 0.00 in0.0 mm
09:54 AM 55.4°F13.0°C 38.1°F3.4°C 52% 2.0 mph S3.2 kmh S 4.0 mph6.4 kmh 25.42 in860.8 mb 0.00 in0.0 mm 0.00 in0.0 mm 0.00 in0.0 mm
09:59 AM 56.3°F13.5°C 36.9°F2.7°C 48% 2.0 mph SSW3.2 kmh SSW 7.4 mph11.9 kmh 25.42 in860.8 mb 0.00 in0.0 mm 0.00 in0.0 mm 0.00 in0.0 mm
10:04 AM 55.9°F13.3°C 34.9°F1.6°C 45% 4.0 mph NW6.4 kmh NW 6.3 mph10.1 kmh 25.45 in861.8 mb 0.00 in0.0 mm 0.00 in0.0 mm 0.00 in0.0 mm
10:09 AM 56.7°F13.7°C 34.3°F1.3°C 43% 3.0 mph N4.8 kmh N 5.4 mph8.7 kmh 25.45 in861.8 mb 0.00 in0.0 mm 0.00 in0.0 mm 0.00 in0.0 mm
10:14 AM 57.0°F13.9°C 33.6°F0.9°C 41% 2.0 mph NE3.2 kmh NE 6.3 mph10.1 kmh 25.45 in861.8 mb 0.00 in0.0 mm 0.00 in0.0 mm 0.00 in0.0 mm
10:19 AM 57.0°F13.9°C 31.6°F-0.2°C 38% 4.0 mph NE6.4 kmh NE 6.3 mph10.1 kmh 25.45 in861.8 mb 0.00 in0.0 mm 0.00 in0.0 mm 0.00 in0.0 mm
10:24 AM 57.0°F13.9°C 31.6°F-0.2°C 38% 4.0 mph N6.4 kmh N 7.4 mph11.9 kmh 25.45 in861.8 mb 0.00 in0.0 mm 0.00 in0.0 mm 0.00 in0.0 mm
10:29 AM 57.4°F14.1°C 31.3°F-0.4°C 37% 4.0 mph N6.4 kmh N 6.9 mph11.1 kmh 25.45 in861.8 mb 0.00 in0.0 mm 0.00 in0.0 mm 0.00 in0.0 mm
10:34 AM 57.0°F13.9°C 30.4°F-0.9°C 36% 4.0 mph NE6.4 kmh NE 5.8 mph9.3 kmh 25.45 in861.8 mb 0.00 in0.0 mm 0.00 in0.0 mm 0.00 in0.0 mm
10:39 AM 57.4°F14.1°C 30.7°F-0.7°C 36% 3.0 mph NNW4.8 kmh NNW 6.3 mph10.1 kmh 25.45 in861.8 mb 0.00 in0.0 mm 0.00 in0.0 mm 0.00 in0.0 mm
10:44 AM 58.6°F14.8°C 31.8°F-0.1°C 36% 3.0 mph WNW4.8 kmh WNW 7.4 mph11.9 kmh 25.45 in861.8 mb 0.00 in0.0 mm 0.00 in0.0 mm 0.00 in0.0 mm
10:49 AM 59.5°F15.3°C 31.8°F-0.1°C 35% 4.0 mph N6.4 kmh N 7.8 mph12.6 kmh 25.45 in861.8 mb 0.00 in0.0 mm 0.00 in0.0 mm 0.00 in0.0 mm
10:54 AM 58.8°F14.9°C 30.6°F-0.8°C 34% 4.0 mph NNE6.4 kmh NNE 8.3 mph13.4 kmh 25.45 in861.8 mb 0.00 in0.0 mm 0.00 in0.0 mm 0.00 in0.0 mm
10:59 AM 59.2°F15.1°C 31.5°F-0.3°C 35% 4.0 mph NE6.4 kmh NE 6.9 mph11.1 kmh 25.45 in861.8 mb 0.00 in0.0 mm 0.00 in0.0 mm 0.00 in0.0 mm
11:04 AM 58.8°F14.9°C 30.6°F-0.8°C 34% 4.0 mph NE6.4 kmh NE 7.8 mph12.6 kmh 25.45 in861.8 mb 0.00 in0.0 mm 0.00 in0.0 mm 0.00 in0.0 mm
11:09 AM 58.5°F14.7°C 30.2°F-1.0°C 34% 5.0 mph NE8.0 kmh NE 10.1 mph16.3 kmh 25.45 in861.8 mb 0.00 in0.0 mm 0.00 in0.0 mm 0.00 in0.0 mm
11:14 AM 58.5°F14.7°C 30.2°F-1.0°C 34% 6.0 mph NNE9.7 kmh NNE 10.1 mph16.3 kmh 25.45 in861.8 mb 0.00 in0.0 mm 0.00 in0.0 mm 0.00 in0.0 mm
11:19 AM 59.4°F15.2°C 30.9°F-0.6°C 34% 6.0 mph N9.7 kmh N 8.3 mph13.4 kmh 25.45 in861.8 mb 0.00 in0.0 mm 0.00 in0.0 mm 0.00 in0.0 mm
11:24 AM 59.5°F15.3°C 29.7°F-1.3°C 32% 5.0 mph N8.0 kmh N 7.8 mph12.6 kmh 25.45 in861.8 mb 0.00 in0.0 mm 0.00 in0.0 mm 0.00 in0.0 mm
11:29 AM 59.9°F15.5°C 29.1°F-1.6°C 31% 4.0 mph NNE6.4 kmh NNE 8.7 mph14.0 kmh 25.45 in861.8 mb 0.00 in0.0 mm 0.00 in0.0 mm 0.00 in0.0 mm
11:34 AM 60.1°F15.6°C 28.6°F-1.9°C 30% 5.0 mph NE8.0 kmh NE 9.2 mph14.8 kmh 25.45 in861.8 mb 0.00 in0.0 mm 0.00 in0.0 mm 0.00 in0.0 mm
11:39 AM 59.7°F15.4°C 29.1°F-1.6°C 31% 5.0 mph NE8.0 kmh NE 8.3 mph13.4 kmh 25.45 in861.8 mb 0.00 in0.0 mm 0.00 in0.0 mm 0.00 in0.0 mm
11:44 AM 60.1°F15.6°C 29.3°F-1.5°C 31% 5.0 mph NNE8.0 kmh NNE 9.2 mph14.8 kmh 25.45 in861.8 mb 0.00 in0.0 mm 0.00 in0.0 mm 0.00 in0.0 mm
11:49 AM 60.6°F15.9°C 28.2°F-2.1°C 29% 4.0 mph NNE6.4 kmh NNE 7.4 mph11.9 kmh 25.42 in860.8 mb 0.00 in0.0 mm 0.00 in0.0 mm 0.00 in0.0 mm
11:54 AM 60.6°F15.9°C 28.9°F-1.7°C 30% 4.0 mph NNE6.4 kmh NNE 6.9 mph11.1 kmh 25.42 in860.8 mb 0.00 in0.0 mm 0.00 in0.0 mm 0.00 in0.0 mm
11:59 AM 59.9°F15.5°C 27.5°F-2.5°C 29% 4.0 mph NNE6.4 kmh NNE 8.7 mph14.0 kmh 25.42 in860.8 mb 0.00 in0.0 mm 0.00 in0.0 mm 0.00 in0.0 mm
12:04 PM 60.6°F15.9°C 28.2°F-2.1°C 29% 4.0 mph NW6.4 kmh NW 6.3 mph10.1 kmh 25.42 in860.8 mb 0.00 in0.0 mm 0.00 in0.0 mm 0.00 in0.0 mm
12:09 PM 61.3°F16.3°C 28.0°F-2.2°C 28% 4.0 mph NW6.4 kmh NW 7.8 mph12.6 kmh 25.42 in860.8 mb 0.00 in0.0 mm 0.00 in0.0 mm 0.00 in0.0 mm
12:14 PM 61.7°F16.5°C 27.3°F-2.6°C 27% 3.0 mph N4.8 kmh N 6.7 mph10.8 kmh 25.42 in860.8 mb 0.00 in0.0 mm 0.00 in0.0 mm 0.00 in0.0 mm
12:19 PM 61.7°F16.5°C 25.5°F-3.6°C 25% 3.0 mph N4.8 kmh N 6.7 mph10.8 kmh 25.42 in860.8 mb 0.00 in0.0 mm 0.00 in0.0 mm 0.00 in0.0 mm
12:24 PM 62.4°F16.9°C 27.1°F-2.7°C 26% 4.0 mph NNE6.4 kmh NNE 7.4 mph11.9 kmh 25.42 in860.8 mb 0.00 in0.0 mm 0.00 in0.0 mm 0.00 in0.0 mm
12:29 PM 62.6°F17.0°C 26.2°F-3.2°C 25% 4.0 mph NNE6.4 kmh NNE 6.3 mph10.1 kmh 25.42 in860.8 mb 0.00 in0.0 mm 0.00 in0.0 mm 0.00 in0.0 mm
12:34 PM 62.6°F17.0°C 25.3°F-3.7°C 24% 4.0 mph NE6.4 kmh NE 6.7 mph10.8 kmh 25.42 in860.8 mb 0.00 in0.0 mm 0.00 in0.0 mm 0.00 in0.0 mm
12:39 PM 62.2°F16.8°C 25.0°F-3.9°C 24% 5.0 mph NE8.0 kmh NE 8.7 mph14.0 kmh 25.42 in860.8 mb 0.00 in0.0 mm 0.00 in0.0 mm 0.00 in0.0 mm
12:44 PM 63.0°F17.2°C 25.7°F-3.5°C 24% 5.0 mph NNW8.0 kmh NNW 6.9 mph11.1 kmh 25.42 in860.8 mb 0.00 in0.0 mm 0.00 in0.0 mm 0.00 in0.0 mm
12:49 PM 63.3°F17.4°C 25.9°F-3.4°C 24% 3.0 mph NNW4.8 kmh NNW 7.4 mph11.9 kmh 25.39 in859.8 mb 0.00 in0.0 mm 0.00 in0.0 mm 0.00 in0.0 mm
12:54 PM 64.2°F17.9°C 22.3°F-5.4°C 20% 3.0 mph N4.8 kmh N 7.4 mph11.9 kmh 25.39 in859.8 mb 0.00 in0.0 mm 0.00 in0.0 mm 0.00 in0.0 mm
12:59 PM 63.9°F17.7°C 19.6°F-6.9°C 18% 4.0 mph NE6.4 kmh NE 7.8 mph12.6 kmh 25.39 in859.8 mb 0.00 in0.0 mm 0.00 in0.0 mm 0.00 in0.0 mm
01:04 PM 64.4°F18.0°C 19.9°F-6.7°C 18% 4.0 mph NE6.4 kmh NE 6.9 mph11.1 kmh 25.39 in859.8 mb 0.00 in0.0 mm 0.00 in0.0 mm 0.00 in0.0 mm
01:09 PM 63.7°F17.6°C 15.3°F-9.3°C 15% 5.0 mph NNE8.0 kmh NNE 11.6 mph18.7 kmh 25.39 in859.8 mb 0.00 in0.0 mm 0.00 in0.0 mm 0.00 in0.0 mm
01:14 PM 63.9°F17.7°C 15.3°F-9.3°C 15% 5.0 mph N8.0 kmh N 7.8 mph12.6 kmh 25.39 in859.8 mb 0.00 in0.0 mm 0.00 in0.0 mm 0.00 in0.0 mm
01:19 PM 64.0°F17.8°C 12.2°F-11.0°C 13% 5.0 mph NE8.0 kmh NE 7.8 mph12.6 kmh 25.39 in859.8 mb 0.00 in0.0 mm 0.00 in0.0 mm 0.00 in0.0 mm
01:24 PM 64.8°F18.2°C 12.7°F-10.7°C 13% 3.0 mph ENE4.8 kmh ENE 5.4 mph8.7 kmh 25.39 in859.8 mb 0.00 in0.0 mm 0.00 in0.0 mm 0.00 in0.0 mm
01:29 PM 65.5°F18.6°C 16.7°F-8.5°C 15% 2.0 mph ENE3.2 kmh ENE 5.8 mph9.3 kmh 25.39 in859.8 mb 0.00 in0.0 mm 0.00 in0.0 mm 0.00 in0.0 mm
01:34 PM 65.1°F18.4°C 16.3°F-8.7°C 15% 3.0 mph NW4.8 kmh NW 7.4 mph11.9 kmh 25.39 in859.8 mb 0.00 in0.0 mm 0.00 in0.0 mm 0.00 in0.0 mm
01:39 PM 64.9°F18.3°C 16.2°F-8.8°C 15% 4.0 mph WNW6.4 kmh WNW 7.4 mph11.9 kmh 25.39 in859.8 mb 0.00 in0.0 mm 0.00 in0.0 mm 0.00 in0.0 mm
01:44 PM 66.2°F19.0°C 17.2°F-8.2°C 15% 4.0 mph WNW6.4 kmh WNW 7.4 mph11.9 kmh 25.39 in859.8 mb 0.00 in0.0 mm 0.00 in0.0 mm 0.00 in0.0 mm
01:49 PM 65.8°F18.8°C 11.8°F-11.2°C 12% 3.0 mph NNE4.8 kmh NNE 7.4 mph11.9 kmh 25.39 in859.8 mb 0.00 in0.0 mm 0.00 in0.0 mm 0.00 in0.0 mm
01:54 PM 66.4°F19.1°C 12.2°F-11.0°C 12% 4.0 mph NE6.4 kmh NE 8.3 mph13.4 kmh 25.39 in859.8 mb 0.00 in0.0 mm 0.00 in0.0 mm 0.00 in0.0 mm
01:59 PM 65.5°F18.6°C 11.5°F-11.4°C 12% 4.0 mph NNW6.4 kmh NNW 6.9 mph11.1 kmh 25.39 in859.8 mb 0.00 in0.0 mm 0.00 in0.0 mm 0.00 in0.0 mm
02:04 PM 65.7°F18.7°C 11.7°F-11.3°C 12% 4.0 mph NW6.4 kmh NW 6.3 mph10.1 kmh 25.39 in859.8 mb 0.00 in0.0 mm 0.00 in0.0 mm 0.00 in0.0 mm
02:09 PM 66.0°F18.9°C -5537.2°C - 3.0 mph NW4.8 kmh NW 6.7 mph10.8 kmh 25.39 in859.8 mb 0.00 in0.0 mm 0.00 in0.0 mm 0.00 in0.0 mm
02:14 PM 66.7°F19.3°C -5537.2°C - 4.0 mph NW6.4 kmh NW 7.4 mph11.9 kmh 25.39 in859.8 mb 0.00 in0.0 mm 0.00 in0.0 mm 0.00 in0.0 mm
02:19 PM 65.8°F18.8°C -5537.2°C - 4.0 mph NNW6.4 kmh NNW 6.7 mph10.8 kmh 25.37 in859.1 mb 0.00 in0.0 mm 0.00 in0.0 mm 0.00 in0.0 mm
02:24 PM 66.7°F19.3°C -5537.2°C - 4.0 mph N6.4 kmh N 6.7 mph10.8 kmh 25.37 in859.1 mb 0.00 in0.0 mm 0.00 in0.0 mm 0.00 in0.0 mm
02:29 PM 66.0°F18.9°C -5537.2°C - 4.0 mph N6.4 kmh N 6.7 mph10.8 kmh 25.37 in859.1 mb 0.00 in0.0 mm 0.00 in0.0 mm 0.00 in0.0 mm
02:34 PM 66.9°F19.4°C -5537.2°C - 4.0 mph N6.4 kmh N 7.4 mph11.9 kmh 25.37 in859.1 mb 0.00 in0.0 mm 0.00 in0.0 mm 0.00 in0.0 mm
02:39 PM 67.8°F19.9°C -5537.2°C - 4.0 mph NNE6.4 kmh NNE 6.3 mph10.1 kmh 25.37 in859.1 mb 0.00 in0.0 mm 0.00 in0.0 mm 0.00 in0.0 mm
02:44 PM 67.5°F19.7°C -5537.2°C - 4.0 mph SE6.4 kmh SE 10.5 mph16.9 kmh 25.37 in859.1 mb 0.00 in0.0 mm 0.00 in0.0 mm 0.00 in0.0 mm
02:49 PM 67.3°F19.6°C -5537.2°C - 5.0 mph SE8.0 kmh SE 8.7 mph14.0 kmh 25.37 in859.1 mb 0.00 in0.0 mm 0.00 in0.0 mm 0.00 in0.0 mm
02:54 PM 68.0°F20.0°C -5537.2°C - 5.0 mph SSE8.0 kmh SSE 9.6 mph15.4 kmh 25.37 in859.1 mb 0.00 in0.0 mm 0.00 in0.0 mm 0.00 in0.0 mm
02:59 PM 67.1°F19.5°C -5537.2°C - 5.0 mph SSW8.0 kmh SSW 10.5 mph16.9 kmh 25.37 in859.1 mb 0.00 in0.0 mm 0.00 in0.0 mm 0.00 in0.0 mm
03:04 PM 67.6°F19.8°C -5537.2°C - 6.0 mph WSW9.7 kmh WSW 10.5 mph16.9 kmh 25.37 in859.1 mb 0.00 in0.0 mm 0.00 in0.0 mm 0.00 in0.0 mm
03:09 PM 67.3°F19.6°C -5537.2°C - 5.0 mph WSW8.0 kmh WSW 7.8 mph12.6 kmh 25.37 in859.1 mb 0.00 in0.0 mm 0.00 in0.0 mm 0.00 in0.0 mm
03:14 PM 67.1°F19.5°C -5537.2°C - 4.0 mph SW6.4 kmh SW 7.4 mph11.9 kmh 25.37 in859.1 mb 0.00 in0.0 mm 0.00 in0.0 mm 0.00 in0.0 mm
03:19 PM 68.4°F20.2°C -5537.2°C - 5.0 mph SSW8.0 kmh SSW 9.2 mph14.8 kmh 25.37 in859.1 mb 0.00 in0.0 mm 0.00 in0.0 mm 0.00 in0.0 mm
03:24 PM 68.4°F20.2°C -5537.2°C - 6.0 mph SSE9.7 kmh SSE 9.6 mph15.4 kmh 25.37 in859.1 mb 0.00 in0.0 mm 0.00 in0.0 mm 0.00 in0.0 mm
03:29 PM 68.9°F20.5°C -5537.2°C - 5.0 mph SSE8.0 kmh SSE 8.3 mph13.4 kmh 25.37 in859.1 mb 0.00 in0.0 mm 0.00 in0.0 mm 0.00 in0.0 mm
03:34 PM 69.3°F20.7°C -5537.2°C - 4.0 mph SE6.4 kmh SE 7.8 mph12.6 kmh 25.37 in859.1 mb 0.00 in0.0 mm 0.00 in0.0 mm 0.00 in0.0 mm
03:39 PM 69.1°F20.6°C -5537.2°C - 5.0 mph SE8.0 kmh SE 8.3 mph13.4 kmh 25.37 in859.1 mb 0.00 in0.0 mm 0.00 in0.0 mm 0.00 in0.0 mm
03:44 PM 68.0°F20.0°C -5537.2°C - 5.0 mph S8.0 kmh S 8.3 mph13.4 kmh 25.37 in859.1 mb 0.00 in0.0 mm 0.00 in0.0 mm 0.00 in0.0 mm
03:49 PM 68.2°F20.1°C -5537.2°C - 5.0 mph WSW8.0 kmh WSW 7.8 mph12.6 kmh 25.37 in859.1 mb 0.00 in0.0 mm 0.00 in0.0 mm 0.00 in0.0 mm
03:54 PM 68.2°F20.1°C -5537.2°C - 6.0 mph WSW9.7 kmh WSW 10.1 mph16.3 kmh 25.37 in859.1 mb 0.00 in0.0 mm 0.00 in0.0 mm 0.00 in0.0 mm
03:59 PM 68.2°F20.1°C -5537.2°C - 6.0 mph SW9.7 kmh SW 7.8 mph12.6 kmh 25.37 in859.1 mb 0.00 in0.0 mm 0.00 in0.0 mm 0.00 in0.0 mm
04:04 PM 68.7°F20.4°C -5537.2°C - 4.0 mph WSW6.4 kmh WSW 5.4 mph8.7 kmh 25.34 in858.1 mb 0.00 in0.0 mm 0.00 in0.0 mm 0.00 in0.0 mm
04:09 PM 69.1°F20.6°C -5537.2°C - 3.0 mph S4.8 kmh S 5.8 mph9.3 kmh 25.34 in858.1 mb 0.00 in0.0 mm 0.00 in0.0 mm 0.00 in0.0 mm
04:14 PM 69.4°F20.8°C -5537.2°C - 4.0 mph ESE6.4 kmh ESE 9.6 mph15.4 kmh 25.34 in858.1 mb 0.00 in0.0 mm 0.00 in0.0 mm 0.00 in0.0 mm
04:19 PM 69.6°F20.9°C -5537.2°C - 5.0 mph SE8.0 kmh SE 8.3 mph13.4 kmh 25.34 in858.1 mb 0.00 in0.0 mm 0.00 in0.0 mm 0.00 in0.0 mm
04:24 PM 69.4°F20.8°C -5537.2°C - 5.0 mph SE8.0 kmh SE 6.7 mph10.8 kmh 25.34 in858.1 mb 0.00 in0.0 mm 0.00 in0.0 mm 0.00 in0.0 mm
04:29 PM 69.4°F20.8°C -5537.2°C - 4.0 mph SE6.4 kmh SE 8.3 mph13.4 kmh 25.34 in858.1 mb 0.00 in0.0 mm 0.00 in0.0 mm 0.00 in0.0 mm
04:34 PM 69.3°F20.7°C -5537.2°C - 6.0 mph SSE9.7 kmh SSE 9.6 mph15.4 kmh 25.34 in858.1 mb 0.00 in0.0 mm 0.00 in0.0 mm 0.00 in0.0 mm
04:39 PM 70.0°F21.1°C -5537.2°C - 6.0 mph SSE9.7 kmh SSE 8.7 mph14.0 kmh 25.34 in858.1 mb 0.00 in0.0 mm 0.00 in0.0 mm 0.00 in0.0 mm
04:44 PM 69.6°F20.9°C -5537.2°C - 6.0 mph SSE9.7 kmh SSE 11.6 mph18.7 kmh 25.34 in858.1 mb 0.00 in0.0 mm 0.00 in0.0 mm 0.00 in0.0 mm
04:49 PM 70.0°F21.1°C -5537.2°C - 5.0 mph SSE8.0 kmh SSE 7.8 mph12.6 kmh 25.34 in858.1 mb 0.00 in0.0 mm 0.00 in0.0 mm 0.00 in0.0 mm
04:54 PM 69.4°F20.8°C -5537.2°C - 4.0 mph SSE6.4 kmh SSE 8.3 mph13.4 kmh 25.34 in858.1 mb 0.00 in0.0 mm 0.00 in0.0 mm 0.00 in0.0 mm
04:59 PM 69.8°F21.0°C -5537.2°C - 4.0 mph SE6.4 kmh SE 7.4 mph11.9 kmh 25.34 in858.1 mb 0.00 in0.0 mm 0.00 in0.0 mm 0.00 in0.0 mm
05:04 PM 70.0°F21.1°C -5537.2°C - 4.0 mph SE6.4 kmh SE 7.8 mph12.6 kmh 25.34 in858.1 mb 0.00 in0.0 mm 0.00 in0.0 mm 0.00 in0.0 mm
05:09 PM 69.6°F20.9°C -5537.2°C - 5.0 mph SSE8.0 kmh SSE 8.3 mph13.4 kmh 25.34 in858.1 mb 0.00 in0.0 mm 0.00 in0.0 mm 0.00 in0.0 mm
05:14 PM 69.3°F20.7°C -5537.2°C - 5.0 mph S8.0 kmh S 7.4 mph11.9 kmh 25.34 in858.1 mb 0.00 in0.0 mm 0.00 in0.0 mm 0.00 in0.0 mm
05:19 PM 69.3°F20.7°C -5537.2°C - 5.0 mph S8.0 kmh S 9.2 mph14.8 kmh 25.34 in858.1 mb 0.00 in0.0 mm 0.00 in0.0 mm 0.00 in0.0 mm
05:24 PM 69.6°F20.9°C -5537.2°C - 6.0 mph S9.7 kmh S 8.7 mph14.0 kmh 25.34 in858.1 mb 0.00 in0.0 mm 0.00 in0.0 mm 0.00 in0.0 mm
05:29 PM 69.1°F20.6°C -5537.2°C - 6.0 mph S9.7 kmh S 7.4 mph11.9 kmh 25.34 in858.1 mb 0.00 in0.0 mm 0.00 in0.0 mm 0.00 in0.0 mm
05:34 PM 69.1°F20.6°C -5537.2°C - 5.0 mph S8.0 kmh S 7.8 mph12.6 kmh 25.34 in858.1 mb 0.00 in0.0 mm 0.00 in0.0 mm 0.00 in0.0 mm
05:40 PM 69.4°F20.8°C -5537.2°C - 5.0 mph S8.0 kmh S 7.4 mph11.9 kmh 25.34 in858.1 mb 0.00 in0.0 mm 0.00 in0.0 mm 0.00 in0.0 mm
05:45 PM 68.9°F20.5°C -5537.2°C - 5.0 mph S8.0 kmh S 6.9 mph11.1 kmh 25.34 in858.1 mb 0.00 in0.0 mm 0.00 in0.0 mm 0.00 in0.0 mm
05:50 PM 69.1°F20.6°C -5537.2°C - 4.0 mph SSW6.4 kmh SSW 6.9 mph11.1 kmh 25.34 in858.1 mb 0.00 in0.0 mm 0.00 in0.0 mm 0.00 in0.0 mm
05:55 PM 69.6°F20.9°C -5537.2°C - 4.0 mph S6.4 kmh S 6.9 mph11.1 kmh 25.34 in858.1 mb 0.00 in0.0 mm 0.00 in0.0 mm 0.00 in0.0 mm
06:00 PM 70.0°F21.1°C -5537.2°C - 4.0 mph SSE6.4 kmh SSE 6.9 mph11.1 kmh 25.34 in858.1 mb 0.00 in0.0 mm 0.00 in0.0 mm 0.00 in0.0 mm
06:05 PM 70.0°F21.1°C -5537.2°C - 5.0 mph SSE8.0 kmh SSE 6.7 mph10.8 kmh 25.34 in858.1 mb 0.00 in0.0 mm 0.00 in0.0 mm 0.00 in0.0 mm
06:10 PM 69.3°F20.7°C -5537.2°C - 5.0 mph SSE8.0 kmh SSE 6.9 mph11.1 kmh 25.34 in858.1 mb 0.00 in0.0 mm 0.00 in0.0 mm 0.00 in0.0 mm
06:15 PM 69.1°F20.6°C -5537.2°C - 5.0 mph SSE8.0 kmh SSE 6.7 mph10.8 kmh 25.34 in858.1 mb 0.00 in0.0 mm 0.00 in0.0 mm 0.00 in0.0 mm
06:20 PM 68.9°F20.5°C -5537.2°C - 4.0 mph SE6.4 kmh SE 5.8 mph9.3 kmh 25.34 in858.1 mb 0.00 in0.0 mm 0.00 in0.0 mm 0.00 in0.0 mm
06:25 PM 68.7°F20.4°C -5537.2°C - 4.0 mph SE6.4 kmh SE 5.4 mph8.7 kmh 25.34 in858.1 mb 0.00 in0.0 mm 0.00 in0.0 mm 0.00 in0.0 mm
06:30 PM 68.2°F20.1°C -5537.2°C - 4.0 mph SE6.4 kmh SE 4.9 mph7.9 kmh 25.34 in858.1 mb 0.00 in0.0 mm 0.00 in0.0 mm 0.00 in0.0 mm
06:35 PM 67.6°F19.8°C -5537.2°C - 3.0 mph SE4.8 kmh SE 4.5 mph7.2 kmh 25.34 in858.1 mb 0.00 in0.0 mm 0.00 in0.0 mm 0.00 in0.0 mm
06:40 PM 67.1°F19.5°C -5537.2°C - 2.0 mph SE3.2 kmh SE 3.1 mph5.0 kmh 25.34 in858.1 mb 0.00 in0.0 mm 0.00 in0.0 mm 0.00 in0.0 mm
06:45 PM 66.4°F19.1°C 12.2°F-11.0°C 12% 1.0 mph SE1.6 kmh SE 3.1 mph5.0 kmh 25.34 in858.1 mb 0.00 in0.0 mm 0.00 in0.0 mm 0.00 in0.0 mm
06:50 PM 65.8°F18.8°C 11.8°F-11.2°C 12% 2.0 mph SE3.2 kmh SE 3.6 mph5.8 kmh 25.34 in858.1 mb 0.00 in0.0 mm 0.00 in0.0 mm 0.00 in0.0 mm
06:55 PM 65.3°F18.5°C 16.5°F-8.6°C 15% 2.0 mph SE3.2 kmh SE 3.1 mph5.0 kmh 25.34 in858.1 mb 0.00 in0.0 mm 0.00 in0.0 mm 0.00 in0.0 mm
07:00 PM 64.8°F18.2°C 20.3°F-6.5°C 18% 2.0 mph SE3.2 kmh SE 3.6 mph5.8 kmh 25.34 in858.1 mb 0.00 in0.0 mm 0.00 in0.0 mm 0.00 in0.0 mm
07:05 PM 64.0°F17.8°C 19.8°F-6.8°C 18% 2.0 mph SE3.2 kmh SE 3.6 mph5.8 kmh 25.34 in858.1 mb 0.00 in0.0 mm 0.00 in0.0 mm 0.00 in0.0 mm
07:10 PM 63.5°F17.5°C 22.8°F-5.1°C 21% Calm Calm -- 25.34 in858.1 mb 0.00 in0.0 mm 0.00 in0.0 mm 0.00 in0.0 mm
07:15 PM 63.1°F17.3°C 19.0°F-7.2°C 18% Calm Calm -- 25.34 in858.1 mb 0.00 in0.0 mm 0.00 in0.0 mm 0.00 in0.0 mm
07:20 PM 63.1°F17.3°C 19.0°F-7.2°C 18% Calm Calm -- 25.34 in858.1 mb 0.00 in0.0 mm 0.00 in0.0 mm 0.00 in0.0 mm
07:25 PM 63.0°F17.2°C 18.9°F-7.3°C 18% Calm Calm 3.1 mph5.0 kmh 25.34 in858.1 mb 0.00 in0.0 mm 0.00 in0.0 mm 0.00 in0.0 mm
07:30 PM 62.8°F17.1°C 18.7°F-7.4°C 18% Calm Calm 4.0 mph6.4 kmh 25.34 in858.1 mb 0.00 in0.0 mm 0.00 in0.0 mm 0.00 in0.0 mm
07:35 PM 62.8°F17.1°C 18.7°F-7.4°C 18% Calm Calm -- 25.34 in858.1 mb 0.00 in0.0 mm 0.00 in0.0 mm 0.00 in0.0 mm
07:40 PM 63.0°F17.2°C 18.9°F-7.3°C 18% Calm Calm 4.0 mph6.4 kmh 25.34 in858.1 mb 0.00 in0.0 mm 0.00 in0.0 mm 0.00 in0.0 mm
07:45 PM 62.8°F17.1°C 22.3°F-5.4°C 21% 1.0 mph SE1.6 kmh SE 4.0 mph6.4 kmh 25.34 in858.1 mb 0.00 in0.0 mm 0.00 in0.0 mm 0.00 in0.0 mm
07:50 PM 62.4°F16.9°C 21.9°F-5.6°C 21% Calm Calm -- 25.34 in858.1 mb 0.00 in0.0 mm 0.00 in0.0 mm 0.00 in0.0 mm
07:55 PM 62.4°F16.9°C 24.1°F-4.4°C 23% Calm Calm 3.6 mph5.8 kmh 25.34 in858.1 mb 0.00 in0.0 mm 0.00 in0.0 mm 0.00 in0.0 mm
08:00 PM 62.2°F16.8°C 23.9°F-4.5°C 23% Calm Calm 2.7 mph4.3 kmh 25.34 in858.1 mb 0.00 in0.0 mm 0.00 in0.0 mm 0.00 in0.0 mm
08:05 PM 61.9°F16.6°C 23.7°F-4.6°C 23% Calm Calm -- 25.34 in858.1 mb 0.00 in0.0 mm 0.00 in0.0 mm 0.00 in0.0 mm
08:10 PM 61.9°F16.6°C 23.7°F-4.6°C 23% Calm Calm -- 25.34 in858.1 mb 0.00 in0.0 mm 0.00 in0.0 mm 0.00 in0.0 mm
08:15 PM 61.5°F16.4°C 24.4°F-4.2°C 24% Calm Calm -- 25.34 in858.1 mb 0.00 in0.0 mm 0.00 in0.0 mm 0.00 in0.0 mm
08:20 PM 61.5°F16.4°C 24.4°F-4.2°C 24% Calm Calm 4.0 mph6.4 kmh 25.34 in858.1 mb 0.00 in0.0 mm 0.00 in0.0 mm 0.00 in0.0 mm
08:25 PM 61.3°F16.3°C 24.3°F-4.3°C 24% Calm Calm 2.7 mph4.3 kmh 25.34 in858.1 mb 0.00 in0.0 mm 0.00 in0.0 mm 0.00 in0.0 mm
08:30 PM 61.2°F16.2°C 24.1°F-4.4°C 24% 1.0 mph SE1.6 kmh SE 4.0 mph6.4 kmh 25.34 in858.1 mb 0.00 in0.0 mm 0.00 in0.0 mm 0.00 in0.0 mm
08:35 PM 61.0°F16.1°C 23.9°F-4.5°C 24% 2.0 mph SSE3.2 kmh SSE 3.6 mph5.8 kmh 25.37 in859.1 mb 0.00 in0.0 mm 0.00 in0.0 mm 0.00 in0.0 mm
08:40 PM 60.8°F16.0°C 23.7°F-4.6°C 24% 1.0 mph S1.6 kmh S 3.1 mph5.0 kmh 25.37 in859.1 mb 0.00 in0.0 mm 0.00 in0.0 mm 0.00 in0.0 mm
08:45 PM 60.8°F16.0°C 23.7°F-4.6°C 24% Calm Calm -- 25.37 in859.1 mb 0.00 in0.0 mm 0.00 in0.0 mm 0.00 in0.0 mm
08:50 PM 61.2°F16.2°C 24.1°F-4.4°C 24% 1.0 mph S1.6 kmh S 4.0 mph6.4 kmh 25.37 in859.1 mb 0.00 in0.0 mm 0.00 in0.0 mm 0.00 in0.0 mm
08:55 PM 61.2°F16.2°C 24.1°F-4.4°C 24% 2.0 mph S3.2 kmh S 4.5 mph7.2 kmh 25.37 in859.1 mb 0.00 in0.0 mm 0.00 in0.0 mm 0.00 in0.0 mm
09:00 PM 61.2°F16.2°C 24.1°F-4.4°C 24% 3.0 mph S4.8 kmh S 5.8 mph9.3 kmh 25.37 in859.1 mb 0.00 in0.0 mm 0.00 in0.0 mm 0.00 in0.0 mm
09:05 PM 61.2°F16.2°C 24.1°F-4.4°C 24% 3.0 mph S4.8 kmh S 5.8 mph9.3 kmh 25.37 in859.1 mb 0.00 in0.0 mm 0.00 in0.0 mm 0.00 in0.0 mm
09:10 PM 60.8°F16.0°C 23.7°F-4.6°C 24% 3.0 mph SE4.8 kmh SE 4.0 mph6.4 kmh 25.37 in859.1 mb 0.00 in0.0 mm 0.00 in0.0 mm 0.00 in0.0 mm
09:15 PM 60.6°F15.9°C 23.7°F-4.6°C 24% 3.0 mph SE4.8 kmh SE 4.5 mph7.2 kmh 25.37 in859.1 mb 0.00 in0.0 mm 0.00 in0.0 mm 0.00 in0.0 mm
09:20 PM 60.4°F15.8°C 24.4°F-4.2°C 25% 3.0 mph SE4.8 kmh SE 5.4 mph8.7 kmh 25.37 in859.1 mb 0.00 in0.0 mm 0.00 in0.0 mm 0.00 in0.0 mm
09:25 PM 59.9°F15.5°C 24.1°F-4.4°C 25% 3.0 mph SE4.8 kmh SE 5.8 mph9.3 kmh 25.37 in859.1 mb 0.00 in0.0 mm 0.00 in0.0 mm 0.00 in0.0 mm
09:30 PM 60.1°F15.6°C 24.1°F-4.4°C 25% 3.0 mph SE4.8 kmh SE 6.7 mph10.8 kmh 25.37 in859.1 mb 0.00 in0.0 mm 0.00 in0.0 mm 0.00 in0.0 mm
09:35 PM 60.3°F15.7°C 24.3°F-4.3°C 25% 4.0 mph ESE6.4 kmh ESE 8.7 mph14.0 kmh 25.37 in859.1 mb 0.00 in0.0 mm 0.00 in0.0 mm 0.00 in0.0 mm
09:40 PM 60.3°F15.7°C 24.3°F-4.3°C 25% 4.0 mph E6.4 kmh E 6.7 mph10.8 kmh 25.37 in859.1 mb 0.00 in0.0 mm 0.00 in0.0 mm 0.00 in0.0 mm
09:45 PM 60.1°F15.6°C 24.1°F-4.4°C 25% 3.0 mph E4.8 kmh E 6.3 mph10.1 kmh 25.37 in859.1 mb 0.00 in0.0 mm 0.00 in0.0 mm 0.00 in0.0 mm
09:50 PM 60.1°F15.6°C 24.1°F-4.4°C 25% 3.0 mph ESE4.8 kmh ESE 7.4 mph11.9 kmh 25.37 in859.1 mb 0.00 in0.0 mm 0.00 in0.0 mm 0.00 in0.0 mm
09:55 PM 59.9°F15.5°C 24.1°F-4.4°C 25% 4.0 mph E6.4 kmh E 6.3 mph10.1 kmh 25.37 in859.1 mb 0.00 in0.0 mm 0.00 in0.0 mm 0.00 in0.0 mm
10:00 PM 59.7°F15.4°C 23.9°F-4.5°C 25% 4.0 mph E6.4 kmh E 7.4 mph11.9 kmh 25.37 in859.1 mb 0.00 in0.0 mm 0.00 in0.0 mm 0.00 in0.0 mm
10:05 PM 60.3°F15.7°C 24.3°F-4.3°C 25% 4.0 mph ESE6.4 kmh ESE 9.2 mph14.8 kmh 25.37 in859.1 mb 0.00 in0.0 mm 0.00 in0.0 mm 0.00 in0.0 mm
10:10 PM 59.9°F15.5°C 24.1°F-4.4°C 25% 5.0 mph SE8.0 kmh SE 8.7 mph14.0 kmh 25.37 in859.1 mb 0.00 in0.0 mm 0.00 in0.0 mm 0.00 in0.0 mm
10:15 PM 59.7°F15.4°C 23.9°F-4.5°C 25% 5.0 mph SE8.0 kmh SE 6.9 mph11.1 kmh 25.37 in859.1 mb 0.00 in0.0 mm 0.00 in0.0 mm 0.00 in0.0 mm
10:20 PM 59.4°F15.2°C 23.5°F-4.7°C 25% 5.0 mph SE8.0 kmh SE 9.2 mph14.8 kmh 25.37 in859.1 mb 0.00 in0.0 mm 0.00 in0.0 mm 0.00 in0.0 mm
10:25 PM 58.8°F14.9°C 23.0°F-5.0°C 25% 4.0 mph SE6.4 kmh SE 6.3 mph10.1 kmh 25.37 in859.1 mb 0.00 in0.0 mm 0.00 in0.0 mm 0.00 in0.0 mm
10:30 PM 59.0°F15.0°C 24.1°F-4.4°C 26% 4.0 mph SE6.4 kmh SE 7.4 mph11.9 kmh 25.37 in859.1 mb 0.00 in0.0 mm 0.00 in0.0 mm 0.00 in0.0 mm
10:35 PM 59.0°F15.0°C 23.2°F-4.9°C 25% 4.0 mph SSE6.4 kmh SSE 6.3 mph10.1 kmh 25.37 in859.1 mb 0.00 in0.0 mm 0.00 in0.0 mm 0.00 in0.0 mm
10:40 PM 58.6°F14.8°C 23.0°F-5.0°C 25% 3.0 mph SE4.8 kmh SE 6.7 mph10.8 kmh 25.37 in859.1 mb 0.00 in0.0 mm 0.00 in0.0 mm 0.00 in0.0 mm
10:45 PM 59.2°F15.1°C 23.4°F-4.8°C 25% 4.0 mph SE6.4 kmh SE 7.4 mph11.9 kmh 25.37 in859.1 mb 0.00 in0.0 mm 0.00 in0.0 mm 0.00 in0.0 mm
10:50 PM 59.2°F15.1°C 23.4°F-4.8°C 25% 4.0 mph ESE6.4 kmh ESE 7.4 mph11.9 kmh 25.37 in859.1 mb 0.00 in0.0 mm 0.00 in0.0 mm 0.00 in0.0 mm
10:55 PM 58.5°F14.7°C 22.8°F-5.1°C 25% 3.0 mph E4.8 kmh E 4.9 mph7.9 kmh 25.37 in859.1 mb 0.00 in0.0 mm 0.00 in0.0 mm 0.00 in0.0 mm
11:00 PM 57.9°F14.4°C 24.1°F-4.4°C 27% 3.0 mph NE4.8 kmh NE 5.4 mph8.7 kmh 25.37 in859.1 mb 0.00 in0.0 mm 0.00 in0.0 mm 0.00 in0.0 mm
11:05 PM 57.9°F14.4°C 24.1°F-4.4°C 27% 3.0 mph NE4.8 kmh NE 4.9 mph7.9 kmh 25.37 in859.1 mb 0.00 in0.0 mm 0.00 in0.0 mm 0.00 in0.0 mm
11:10 PM 58.1°F14.5°C 23.4°F-4.8°C 26% 3.0 mph NE4.8 kmh NE 4.9 mph7.9 kmh 25.37 in859.1 mb 0.00 in0.0 mm 0.00 in0.0 mm 0.00 in0.0 mm
11:15 PM 57.7°F14.3°C 24.1°F-4.4°C 27% 3.0 mph NE4.8 kmh NE 6.9 mph11.1 kmh 25.37 in859.1 mb 0.00 in0.0 mm 0.00 in0.0 mm 0.00 in0.0 mm
11:20 PM 57.7°F14.3°C 24.1°F-4.4°C 27% 4.0 mph E6.4 kmh E 6.7 mph10.8 kmh 25.37 in859.1 mb 0.00 in0.0 mm 0.00 in0.0 mm 0.00 in0.0 mm
11:25 PM 57.4°F14.1°C 23.7°F-4.6°C 27% 3.0 mph ESE4.8 kmh ESE 6.9 mph11.1 kmh 25.37 in859.1 mb 0.00 in0.0 mm 0.00 in0.0 mm 0.00 in0.0 mm
11:30 PM 57.4°F14.1°C 24.6°F-4.1°C 28% 4.0 mph E6.4 kmh E 7.8 mph12.6 kmh 25.37 in859.1 mb 0.00 in0.0 mm 0.00 in0.0 mm 0.00 in0.0 mm
11:35 PM 57.2°F14.0°C 24.4°F-4.2°C 28% 4.0 mph E6.4 kmh E 6.7 mph10.8 kmh 25.37 in859.1 mb 0.00 in0.0 mm 0.00 in0.0 mm 0.00 in0.0 mm
11:40 PM 57.2°F14.0°C 24.4°F-4.2°C 28% 2.0 mph E3.2 kmh E 4.5 mph7.2 kmh 25.37 in859.1 mb 0.00 in0.0 mm 0.00 in0.0 mm 0.00 in0.0 mm
11:45 PM 56.7°F13.7°C 23.9°F-4.5°C 28% Calm Calm 3.1 mph5.0 kmh 25.37 in859.1 mb 0.00 in0.0 mm 0.00 in0.0 mm 0.00 in0.0 mm
11:50 PM 56.5°F13.6°C 24.6°F-4.1°C 29% 1.0 mph E1.6 kmh E 4.0 mph6.4 kmh 25.37 in859.1 mb 0.00 in0.0 mm 0.00 in0.0 mm 0.00 in0.0 mm
11:56 PM 56.3°F13.5°C 25.3°F-3.7°C 30% Calm Calm 2.7 mph4.3 kmh 25.37 in859.1 mb 0.00 in0.0 mm 0.00 in0.0 mm 0.00 in0.0 mm